Foster, Oklahoma
Current Conditions -  °F | °C
As of 9:55 PM on Saturday 24 Jan 2015 (Local Time) from KPVJ Reporting Station
Clear Clear  
Wind Chill: 41°   Ceiling: Unl
Heat Index: 44°   Visibility: 10mi
Dew Point: 34°   Wind: 6mph
Humidity: 68%   Direction: 210°SSW
Pressure: 29.94"   Gusts: NA
Location:  34.62°N, 97.49°W
Report Text: KPVJ 250355Z AUTO 21005KT 10SM CLR 07/01 A2994 RMK AO2 T00670011
Loading
Personal Weather Stations






























Interactive Weather Map New forecast layout! Learn more

10-Day Weather Forecast

Advertisements
Track Severe Weather on mobile